createdAt,value
2023-04-18T00:01:12.776Z,11.87
2023-04-18T00:03:40.952Z,12.83
2023-04-18T00:06:10.725Z,11.50
2023-04-18T00:08:38.752Z,12.00
2023-04-18T00:11:06.793Z,11.70
2023-04-18T00:13:35.210Z,11.53
2023-04-18T00:16:05.705Z,11.77
2023-04-18T00:18:33.928Z,12.03
2023-04-18T00:21:03.144Z,11.83
2023-04-18T00:23:33.560Z,12.43
2023-04-18T00:26:01.710Z,12.00
2023-04-18T00:28:29.943Z,12.90
2023-04-18T00:30:57.970Z,11.53
2023-04-18T00:33:26.017Z,14.67
2023-04-18T00:35:54.765Z,11.60
2023-04-18T00:38:22.719Z,12.40
2023-04-18T00:40:52.060Z,13.00
2023-04-18T00:43:23.069Z,13.20
2023-04-18T00:45:51.425Z,13.67
2023-04-18T00:48:19.757Z,13.20
2023-04-18T00:50:47.950Z,14.03
2023-04-18T00:53:16.986Z,13.03
2023-04-18T00:55:45.040Z,12.10
2023-04-18T00:58:15.024Z,12.70
2023-04-18T01:00:43.181Z,12.33
2023-04-18T01:03:11.502Z,13.90
2023-04-18T01:05:39.832Z,12.47
2023-04-18T01:08:08.403Z,12.30
2023-04-18T01:10:37.842Z,12.97
2023-04-18T01:13:15.162Z,12.27
2023-04-18T01:15:44.237Z,14.23
2023-04-18T01:18:13.707Z,12.80
2023-04-18T01:20:45.805Z,11.37
2023-04-18T01:23:16.988Z,12.23
2023-04-18T01:25:47.242Z,12.20
2023-04-18T01:28:15.962Z,10.33
2023-04-18T01:30:43.956Z,13.27
2023-04-18T01:33:11.984Z,13.47
2023-04-18T01:35:39.984Z,10.97
2023-04-18T01:38:07.977Z,12.63
2023-04-18T01:40:35.914Z,11.20
2023-04-18T01:43:05.302Z,11.50
2023-04-18T01:45:33.272Z,13.07
2023-04-18T01:48:01.355Z,11.73
2023-04-18T01:50:29.424Z,11.90
2023-04-18T01:52:57.444Z,11.87
2023-04-18T01:55:25.402Z,11.93
2023-04-18T01:57:53.388Z,12.03
2023-04-18T02:00:23.215Z,11.77
2023-04-18T02:02:51.541Z,13.57
2023-04-18T02:05:19.888Z,12.17
2023-04-18T02:07:50.143Z,11.33
2023-04-18T02:10:19.235Z,12.37
2023-04-18T02:12:47.255Z,12.23
2023-04-18T02:15:15.247Z,13.50
2023-04-18T02:17:45.651Z,12.67
2023-04-18T02:20:14.696Z,11.30
2023-04-18T02:22:42.756Z,12.13
2023-04-18T02:25:11.463Z,12.17
2023-04-18T02:27:39.441Z,12.77
2023-04-18T02:30:08.532Z,12.03
2023-04-18T02:32:36.608Z,12.53
2023-04-18T02:35:06.733Z,13.20
2023-04-18T02:37:34.739Z,12.23
2023-04-18T02:40:02.746Z,12.13
2023-04-18T02:42:30.773Z,11.63
2023-04-18T02:44:59.073Z,12.53
2023-04-18T02:47:27.101Z,12.07
2023-04-18T02:49:55.434Z,12.47
2023-04-18T02:52:25.971Z,13.50
2023-04-18T02:54:54.177Z,13.00
2023-04-18T02:57:22.125Z,12.67
2023-04-18T02:59:50.175Z,12.67
2023-04-18T03:02:18.677Z,12.83
2023-04-18T03:04:46.773Z,13.33
2023-04-18T03:07:14.844Z,12.47
2023-04-18T03:09:44.198Z,13.80
2023-04-18T03:12:12.189Z,12.80
2023-04-18T03:14:40.229Z,12.83
2023-04-18T03:17:08.348Z,13.37
2023-04-18T03:19:36.586Z,13.53
2023-04-18T03:22:04.646Z,13.83
2023-04-18T03:24:32.623Z,13.43
2023-04-18T03:27:02.263Z,14.03
2023-04-18T03:29:30.267Z,14.80
2023-04-18T03:31:58.334Z,13.80
2023-04-18T03:34:26.337Z,14.63
2023-04-18T03:36:54.924Z,15.00
2023-04-18T03:39:22.919Z,14.20
2023-04-18T03:41:52.191Z,16.03
2023-04-18T03:44:21.585Z,15.00
2023-04-18T03:46:49.615Z,13.50
2023-04-18T03:49:17.673Z,14.50
2023-04-18T03:51:48.305Z,15.60
2023-04-18T03:54:16.814Z,14.60
2023-04-18T03:56:45.672Z,15.13
2023-04-18T03:59:13.702Z,15.83
2023-04-18T04:01:45.553Z,14.97
2023-04-18T04:04:15.444Z,16.07
2023-04-18T04:06:44.046Z,14.97
2023-04-18T04:09:12.420Z,15.83
2023-04-18T04:11:40.786Z,15.03
2023-04-18T04:14:08.879Z,15.13
2023-04-18T04:16:37.082Z,15.60
2023-04-18T04:19:06.556Z,15.93
2023-04-18T04:21:34.768Z,16.03
2023-04-18T04:24:04.568Z,17.43
2023-04-18T04:26:32.562Z,15.93
2023-04-18T04:29:00.634Z,15.03
2023-04-18T04:31:28.764Z,18.43
2023-04-18T04:33:56.792Z,16.27
2023-04-18T04:36:27.238Z,15.93
2023-04-18T04:38:55.295Z,17.53
2023-04-18T04:41:25.097Z,16.70
2023-04-18T04:43:53.914Z,15.07
2023-04-18T04:46:23.195Z,17.13
2023-04-18T04:48:51.408Z,16.00
2023-04-18T04:51:19.436Z,15.57
2023-04-18T04:53:49.901Z,15.23
2023-04-18T04:56:17.884Z,14.97
2023-04-18T04:58:45.946Z,14.50
2023-04-18T05:01:14.030Z,13.90
2023-04-18T05:03:42.151Z,13.83
2023-04-18T05:06:10.389Z,13.90
2023-04-18T05:08:38.546Z,15.70
2023-04-18T05:11:07.958Z,13.10
2023-04-18T05:13:35.963Z,13.17
2023-04-18T05:16:04.160Z,13.00
2023-04-18T05:18:34.329Z,13.57
2023-04-18T05:21:02.975Z,12.83
2023-04-18T05:23:30.962Z,12.67
2023-04-18T05:25:59.004Z,14.77
2023-04-18T05:28:28.457Z,13.63
2023-04-18T05:31:01.258Z,13.30
2023-04-18T05:33:29.715Z,14.10
2023-04-18T05:35:58.212Z,14.03
2023-04-18T05:38:26.535Z,12.77
2023-04-18T05:40:55.836Z,14.93
2023-04-18T05:43:24.453Z,13.57
2023-04-18T05:45:54.785Z,12.23
2023-04-18T05:48:25.178Z,16.30
2023-04-18T05:50:53.210Z,11.90
2023-04-18T05:53:21.337Z,11.60
2023-04-18T05:55:50.349Z,12.33
2023-04-18T05:58:18.409Z,11.43
2023-04-18T06:00:48.071Z,11.57
2023-04-18T06:03:18.012Z,11.83
2023-04-18T06:05:46.627Z,12.07
2023-04-18T06:08:15.010Z,11.80
2023-04-18T06:10:43.152Z,11.00
2023-04-18T06:13:11.373Z,11.00
2023-04-18T06:15:39.381Z,13.80
2023-04-18T06:18:07.509Z,11.37
2023-04-18T06:20:37.208Z,13.83
2023-04-18T06:23:05.260Z,10.87
2023-04-18T06:25:33.377Z,11.83
2023-04-18T06:28:01.611Z,12.50
2023-04-18T06:30:29.899Z,11.03
2023-04-18T06:32:57.920Z,11.43
2023-04-18T06:35:26.732Z,11.63
2023-04-18T06:37:57.141Z,11.53
2023-04-18T06:40:25.184Z,12.23
2023-04-18T06:42:53.173Z,10.33
2023-04-18T06:45:21.709Z,13.13
2023-04-18T06:47:51.412Z,11.13
2023-04-18T06:50:19.624Z,10.70
2023-04-18T06:52:47.677Z,10.77
2023-04-18T06:55:17.020Z,10.70
2023-04-18T06:57:45.312Z,10.53
2023-04-18T07:00:14.310Z,12.13
2023-04-18T07:02:42.454Z,11.87
2023-04-18T07:05:10.964Z,10.93
2023-04-18T07:07:39.101Z,9.30
2023-04-18T07:10:09.670Z,10.50
2023-04-18T07:12:39.183Z,12.43
2023-04-18T07:15:08.356Z,12.53
2023-04-18T07:17:36.555Z,9.77
2023-04-18T07:20:05.113Z,10.20
2023-04-18T07:22:33.130Z,10.00
2023-04-18T07:25:01.179Z,12.07
2023-04-18T07:27:29.278Z,10.00
2023-04-18T07:29:58.865Z,9.83
2023-04-18T07:32:26.894Z,11.27
2023-04-18T07:34:55.420Z,9.10
2023-04-18T07:37:23.438Z,9.57
2023-04-18T07:39:52.625Z,10.83
2023-04-18T07:42:20.669Z,10.83
2023-04-18T07:44:49.583Z,11.17
2023-04-18T07:47:22.262Z,10.23
2023-04-18T07:49:50.748Z,9.73
2023-04-18T07:52:18.748Z,11.43
2023-04-18T07:54:46.815Z,10.60
2023-04-18T07:57:14.865Z,10.47
2023-04-18T07:59:42.859Z,9.70
2023-04-18T08:02:10.906Z,10.00
2023-04-18T08:04:40.547Z,9.50
2023-04-18T08:07:09.691Z,10.50
2023-04-18T08:09:37.873Z,10.63
2023-04-18T08:12:06.464Z,10.03
2023-04-18T08:14:34.483Z,12.03
2023-04-18T08:17:02.471Z,11.37
2023-04-18T08:19:30.442Z,10.17
2023-04-18T08:22:08.746Z,10.90
2023-04-18T08:24:38.765Z,10.00
2023-04-18T08:27:08.231Z,10.33
2023-04-18T08:29:36.364Z,12.23
2023-04-18T08:32:07.337Z,10.33
2023-04-18T08:34:38.071Z,14.50
2023-04-18T08:37:07.438Z,10.60
2023-04-18T08:39:35.678Z,11.60
2023-04-18T08:42:06.484Z,10.07
2023-04-18T08:44:35.835Z,12.53
2023-04-18T08:47:03.933Z,13.23
2023-04-18T08:49:32.312Z,12.97
2023-04-18T08:52:02.149Z,10.97
2023-04-18T08:54:32.383Z,12.27
2023-04-18T08:57:07.419Z,10.83
2023-04-18T08:59:36.533Z,11.73
2023-04-18T09:02:06.496Z,11.27
2023-04-18T09:04:37.003Z,11.57
2023-04-18T09:07:06.795Z,10.80
2023-04-18T09:09:43.941Z,12.77
2023-04-18T09:12:14.391Z,11.43
2023-04-18T09:14:47.199Z,12.83
2023-04-18T09:17:18.262Z,11.83
2023-04-18T09:19:49.053Z,11.70
2023-04-18T09:22:18.113Z,12.00
2023-04-18T09:24:53.249Z,11.60
2023-04-18T09:27:22.984Z,12.53
2023-04-18T09:29:52.829Z,12.87
2023-04-18T09:32:26.869Z,11.83
2023-04-18T09:34:58.023Z,14.47
2023-04-18T09:37:26.973Z,11.27
2023-04-18T09:39:56.688Z,11.33
2023-04-18T09:42:26.772Z,11.80
2023-04-18T09:45:01.935Z,11.97
2023-04-18T09:47:30.227Z,11.30
2023-04-18T09:49:58.304Z,11.20
2023-04-18T09:52:26.867Z,12.27
2023-04-18T09:55:01.062Z,18.73
2023-04-18T09:57:31.209Z,12.17
2023-04-18T10:00:10.615Z,10.93
2023-04-18T10:02:50.398Z,12.37
2023-04-18T10:05:21.139Z,12.47
2023-04-18T10:07:51.188Z,10.47
2023-04-18T10:10:20.918Z,12.77
2023-04-18T10:12:50.776Z,10.57
2023-04-18T10:15:21.138Z,10.27
2023-04-18T10:20:27.506Z,11.67
2023-04-18T10:22:56.789Z,11.37
2023-04-18T10:25:52.106Z,12.07
2023-04-18T10:28:21.958Z,10.60
2023-04-18T10:30:55.982Z,8.97
2023-04-18T10:33:32.235Z,8.17
2023-04-18T10:36:03.360Z,8.13
2023-04-18T10:38:32.274Z,7.33
2023-04-18T10:41:24.711Z,8.50
2023-04-18T10:44:22.556Z,8.00
2023-04-18T10:47:19.726Z,11.20
2023-04-18T10:50:01.078Z,7.50
2023-04-18T10:52:30.402Z,8.47
2023-04-18T10:55:12.515Z,8.50
2023-04-18T10:57:43.805Z,8.67
2023-04-18T11:00:14.768Z,9.53
2023-04-18T11:02:50.092Z,8.90
2023-04-18T11:05:24.358Z,9.53
2023-04-18T11:07:53.011Z,8.43
2023-04-18T11:10:22.928Z,7.53
2023-04-18T11:12:53.406Z,7.33
2023-04-18T11:15:22.913Z,8.50
2023-04-18T11:17:59.015Z,8.83
2023-04-18T11:20:27.203Z,9.80
2023-04-18T11:22:57.010Z,8.03
2023-04-18T11:25:26.923Z,7.90
2023-04-18T11:27:59.035Z,7.47
2023-04-18T11:30:27.317Z,7.43
2023-04-18T11:32:56.325Z,7.20
2023-04-18T11:35:24.618Z,8.30
2023-04-18T11:37:52.616Z,8.10
2023-04-18T11:40:20.605Z,8.27
2023-04-18T11:42:48.966Z,8.60
2023-04-18T11:45:18.429Z,8.70
2023-04-18T11:47:47.594Z,9.70
2023-04-18T11:50:15.763Z,7.70
2023-04-18T11:52:43.980Z,8.57
2023-04-18T11:55:14.701Z,7.20
2023-04-18T11:57:42.909Z,7.87
2023-04-18T12:00:12.857Z,8.13
2023-04-18T12:02:43.864Z,7.63
2023-04-18T12:05:14.996Z,6.17
2023-04-18T12:07:46.137Z,6.00
2023-04-18T12:10:25.498Z,7.50
2023-04-18T12:12:54.556Z,6.53
2023-04-18T12:15:24.097Z,6.47
2023-04-18T12:17:53.832Z,6.17
2023-04-18T12:20:24.846Z,6.40
2023-04-18T12:22:55.078Z,6.90
2023-04-18T12:25:27.763Z,5.83
2023-04-18T12:27:58.969Z,6.00
2023-04-18T12:30:29.427Z,7.00
2023-04-18T12:33:00.266Z,5.90
2023-04-18T12:35:29.078Z,5.77
2023-04-18T12:37:58.777Z,4.93
2023-04-18T12:40:27.785Z,5.83
2023-04-18T12:42:56.209Z,5.87
2023-04-18T12:45:25.379Z,6.00
2023-04-18T12:47:54.070Z,5.30
2023-04-18T12:50:25.044Z,6.37
2023-04-18T12:52:54.612Z,5.47
2023-04-18T12:55:22.976Z,6.00
2023-04-18T12:57:54.432Z,5.63
2023-04-18T13:00:23.642Z,6.67
2023-04-18T13:02:52.897Z,5.60
2023-04-18T13:05:24.002Z,5.93
2023-04-18T13:07:58.595Z,4.87
2023-04-18T13:10:33.327Z,4.17
2023-04-18T13:13:01.460Z,4.20
2023-04-18T13:15:29.507Z,3.90
2023-04-18T13:17:57.687Z,3.67
2023-04-18T13:20:27.148Z,3.57
2023-04-18T13:22:55.354Z,3.50
2023-04-18T13:25:23.574Z,4.43
2023-04-18T13:27:51.909Z,4.53
2023-04-18T13:30:20.195Z,4.60
2023-04-18T13:32:48.228Z,4.70
2023-04-18T13:35:16.268Z,4.30
2023-04-18T13:37:46.108Z,4.40
2023-04-18T13:40:14.438Z,4.33
2023-04-18T13:42:42.495Z,3.40
2023-04-18T13:45:11.180Z,4.50
2023-04-18T13:47:39.505Z,4.33
2023-04-18T13:50:08.894Z,3.97
2023-04-18T13:52:37.007Z,4.10
2023-04-18T13:55:07.569Z,3.83
2023-04-18T13:57:37.314Z,4.40
2023-04-18T14:00:06.948Z,3.87
2023-04-18T14:02:35.068Z,4.30
2023-04-18T14:05:03.518Z,4.10
2023-04-18T14:07:31.913Z,7.43
2023-04-18T14:09:59.894Z,4.50
2023-04-18T14:12:29.258Z,3.67
2023-04-18T14:14:57.253Z,4.87
2023-04-18T14:17:25.388Z,3.73
2023-04-18T14:19:53.448Z,4.60
2023-04-18T14:22:21.449Z,4.53
2023-04-18T14:24:52.252Z,4.37
2023-04-18T14:27:20.240Z,4.23
2023-04-18T14:29:49.605Z,7.13
2023-04-18T14:32:17.880Z,3.87
2023-04-18T14:34:45.865Z,4.97
2023-04-18T14:37:15.562Z,4.30
2023-04-18T14:39:43.719Z,4.10
2023-04-18T14:42:11.709Z,4.43
2023-04-18T14:44:39.765Z,4.53
2023-04-18T14:47:09.383Z,4.80
2023-04-18T14:49:37.524Z,4.13
2023-04-18T14:52:05.957Z,4.73
2023-04-18T14:54:33.968Z,3.97
2023-04-18T14:57:02.247Z,5.40
2023-04-18T14:59:30.303Z,4.17
2023-04-18T15:01:58.461Z,4.30
2023-04-18T15:04:28.086Z,6.40
2023-04-18T15:06:56.393Z,4.43
2023-04-18T15:09:24.422Z,4.43
2023-04-18T15:11:52.556Z,5.07
2023-04-18T15:14:20.579Z,3.60
2023-04-18T15:16:50.578Z,3.57
2023-04-18T15:19:18.641Z,4.80
2023-04-18T15:21:48.134Z,4.37
2023-04-18T15:24:16.865Z,3.80
2023-04-18T15:26:45.296Z,4.00
2023-04-18T15:29:14.181Z,4.13
2023-04-18T15:31:42.238Z,4.73
2023-04-18T15:34:10.980Z,3.80
2023-04-18T15:36:39.172Z,6.00
2023-04-18T15:39:09.145Z,4.07
2023-04-18T15:41:38.093Z,4.50
2023-04-18T15:44:07.831Z,3.73
2023-04-18T15:46:36.420Z,4.17
2023-04-18T15:49:04.495Z,3.60
2023-04-18T15:51:32.482Z,4.60
2023-04-18T15:54:00.527Z,4.07
2023-04-18T15:56:31.869Z,3.47
2023-04-18T15:59:02.506Z,3.67
2023-04-18T16:01:30.589Z,3.90
2023-04-18T16:03:58.696Z,3.23
2023-04-18T16:06:27.342Z,3.40
2023-04-18T16:08:55.333Z,3.80
2023-04-18T16:11:26.088Z,3.87
2023-04-18T16:13:56.697Z,3.80
2023-04-18T16:16:24.781Z,3.37
2023-04-18T16:18:52.835Z,4.07
2023-04-18T16:21:20.932Z,3.40
2023-04-18T16:23:49.860Z,3.40
2023-04-18T16:26:17.925Z,3.53
2023-04-18T16:28:46.296Z,3.73
2023-04-18T16:31:16.545Z,3.50
2023-04-18T16:33:45.344Z,3.30
2023-04-18T16:36:13.711Z,3.43
2023-04-18T16:38:41.694Z,4.07
2023-04-18T16:41:09.744Z,2.90
2023-04-18T16:43:38.056Z,3.00
2023-04-18T16:46:06.567Z,3.07
2023-04-18T16:48:38.677Z,3.77
2023-04-18T16:51:07.046Z,2.73
2023-04-18T16:53:35.088Z,3.20
2023-04-18T16:56:03.287Z,3.10
2023-04-18T16:58:31.416Z,2.53
2023-04-18T17:00:59.434Z,3.10
2023-04-18T17:03:27.611Z,3.00
2023-04-18T17:05:57.048Z,4.43
2023-04-18T17:08:25.853Z,2.80
2023-04-18T17:10:54.162Z,3.23
2023-04-18T17:13:22.443Z,3.57
2023-04-18T17:15:50.501Z,2.80
2023-04-18T17:18:18.530Z,3.00
2023-04-18T17:20:46.537Z,2.60
2023-04-18T17:23:15.930Z,2.67
2023-04-18T17:25:44.018Z,3.20
2023-04-18T17:28:12.081Z,2.70
2023-04-18T17:30:41.464Z,2.90
2023-04-18T17:33:10.475Z,2.50
2023-04-18T17:35:40.896Z,2.60
2023-04-18T17:38:10.563Z,2.60
2023-04-18T17:40:40.511Z,2.90
2023-04-18T17:43:08.519Z,3.53
2023-04-18T17:45:37.300Z,3.90
2023-04-18T17:48:06.107Z,3.57
2023-04-18T17:50:36.928Z,3.37
2023-04-18T17:53:05.323Z,4.33
2023-04-18T17:55:33.627Z,3.97
2023-04-18T17:58:03.351Z,4.27
2023-04-18T18:00:31.810Z,4.47
2023-04-18T18:03:01.375Z,4.53
2023-04-18T18:05:30.236Z,5.40
2023-04-18T18:07:58.453Z,4.70
2023-04-18T18:10:27.009Z,5.00
2023-04-18T18:12:55.040Z,5.83
2023-04-18T18:15:25.278Z,5.43
2023-04-18T18:17:53.364Z,5.07
2023-04-18T18:20:21.630Z,6.17
2023-04-18T18:22:49.740Z,7.43
2023-04-18T18:25:17.821Z,5.57
2023-04-18T18:27:45.896Z,5.50
2023-04-18T18:30:14.532Z,5.87
2023-04-18T18:32:43.935Z,6.37
2023-04-18T18:35:12.015Z,6.40
2023-04-18T18:37:40.913Z,6.17
2023-04-18T18:40:10.285Z,5.20
2023-04-18T18:42:38.988Z,6.33
2023-04-18T18:45:08.413Z,5.77
2023-04-18T18:47:39.000Z,6.97
2023-04-18T18:50:10.227Z,6.23
2023-04-18T18:52:40.694Z,5.20
2023-04-18T18:55:09.881Z,7.47
2023-04-18T18:57:38.173Z,5.83
2023-04-18T19:00:09.361Z,7.10
2023-04-18T19:02:37.808Z,5.60
2023-04-18T19:05:07.608Z,5.93
2023-04-18T19:07:37.061Z,6.20
2023-04-18T19:10:05.771Z,6.87
2023-04-18T19:12:33.806Z,6.33
2023-04-18T19:15:01.872Z,6.33
2023-04-18T19:17:30.998Z,7.23
2023-04-18T19:20:01.262Z,6.47
2023-04-18T19:22:29.502Z,7.07
2023-04-18T19:25:00.630Z,6.57
2023-04-18T19:27:28.684Z,7.00
2023-04-18T19:29:56.777Z,8.13
2023-04-18T19:32:24.756Z,6.30
2023-04-18T19:34:52.767Z,8.40
2023-04-18T19:37:20.784Z,7.43
2023-04-18T19:39:48.849Z,6.87
2023-04-18T19:42:18.265Z,6.20
2023-04-18T19:44:46.280Z,7.17
2023-04-18T19:47:14.332Z,7.47
2023-04-18T19:49:42.347Z,7.07
2023-04-18T19:52:10.454Z,7.37
2023-04-18T19:54:38.491Z,7.43
2023-04-18T19:57:06.512Z,7.40
2023-04-18T19:59:35.923Z,8.50
2023-04-18T20:02:06.106Z,6.83
2023-04-18T20:04:36.510Z,8.23
2023-04-18T20:07:04.888Z,8.23
2023-04-18T20:09:32.995Z,7.77
2023-04-18T20:12:02.045Z,7.30
2023-04-18T20:14:30.159Z,8.17
2023-04-18T20:16:59.562Z,8.30
2023-04-18T20:19:29.727Z,11.97
2023-04-18T20:21:57.911Z,7.07
2023-04-18T20:24:28.041Z,6.97
2023-04-18T20:26:57.198Z,8.47
2023-04-18T20:29:25.344Z,7.80
2023-04-18T20:31:53.385Z,7.63
2023-04-18T20:34:22.820Z,7.80
2023-04-18T20:36:52.475Z,7.43
2023-04-18T20:39:22.305Z,6.77
2023-04-18T20:41:51.371Z,7.87
2023-04-18T20:44:20.941Z,7.63
2023-04-18T20:46:49.222Z,9.07
2023-04-18T20:49:17.471Z,7.47
2023-04-18T20:51:46.931Z,7.87
2023-04-18T20:54:15.334Z,7.23
2023-04-18T20:56:43.526Z,7.47
2023-04-18T20:59:11.531Z,8.23
2023-04-18T21:01:39.609Z,7.47
2023-04-18T21:04:07.729Z,7.50
2023-04-18T21:06:36.568Z,7.40
2023-04-18T21:09:06.564Z,7.67
2023-04-18T21:11:34.706Z,7.83
2023-04-18T21:14:03.811Z,8.77
2023-04-18T21:16:31.966Z,7.67
2023-04-18T21:19:00.190Z,8.03
2023-04-18T21:21:28.315Z,8.20
2023-04-18T21:23:56.443Z,7.93
2023-04-18T21:26:25.849Z,7.97
2023-04-18T21:28:58.315Z,8.67
2023-04-18T21:31:27.516Z,8.30
2023-04-18T21:33:56.443Z,10.33
2023-04-18T21:36:26.464Z,7.93
2023-04-18T21:38:55.293Z,8.03
2023-04-18T21:41:25.495Z,7.30
2023-04-18T21:43:53.937Z,7.77
2023-04-18T21:46:22.032Z,7.93
2023-04-18T21:48:50.270Z,8.17
2023-04-18T21:51:18.386Z,8.90
2023-04-18T21:53:46.435Z,7.63
2023-04-18T21:56:14.617Z,7.10
2023-04-18T21:58:43.986Z,7.13
2023-04-18T22:01:12.127Z,7.57
2023-04-18T22:03:40.419Z,8.13
2023-04-18T22:06:08.657Z,6.87
2023-04-18T22:08:36.693Z,7.77
2023-04-18T22:11:05.138Z,6.63
2023-04-18T22:13:33.927Z,7.57
2023-04-18T22:16:04.051Z,8.50
2023-04-18T22:18:33.786Z,6.83
2023-04-18T22:21:03.303Z,7.43
2023-04-18T22:23:31.834Z,7.33
2023-04-18T22:26:00.206Z,7.77
2023-04-18T22:28:28.851Z,7.00
2023-04-18T22:30:57.312Z,8.50
2023-04-18T22:33:26.819Z,7.07
2023-04-18T22:35:55.697Z,6.57
2023-04-18T22:38:23.721Z,7.50
2023-04-18T22:40:51.868Z,6.63
2023-04-18T22:43:22.825Z,6.50
2023-04-18T22:45:51.566Z,6.73
2023-04-18T22:48:19.796Z,7.53
2023-04-18T22:50:49.893Z,6.30
2023-04-18T22:53:18.171Z,6.83
2023-04-18T22:55:46.283Z,7.17
2023-04-18T22:58:14.490Z,7.73
2023-04-18T23:00:43.869Z,6.63
2023-04-18T23:03:12.224Z,8.87
2023-04-18T23:05:40.926Z,6.50
2023-04-18T23:08:11.856Z,6.80
2023-04-18T23:10:39.929Z,6.40
2023-04-18T23:13:08.082Z,5.80
2023-04-18T23:15:36.159Z,5.80
2023-04-18T23:18:04.381Z,6.83
2023-04-18T23:20:32.421Z,7.40
2023-04-18T23:23:00.604Z,5.73
2023-04-18T23:25:30.018Z,6.37
2023-04-18T23:27:58.032Z,6.10
2023-04-18T23:30:26.691Z,7.17
2023-04-18T23:32:55.023Z,6.33
2023-04-18T23:35:23.141Z,6.23
2023-04-18T23:37:51.239Z,6.00
2023-04-18T23:40:19.449Z,6.67
2023-04-18T23:42:48.822Z,6.90
2023-04-18T23:45:16.999Z,6.50
2023-04-18T23:47:45.133Z,6.67
2023-04-18T23:50:13.588Z,5.97
2023-04-18T23:52:41.585Z,5.87
2023-04-18T23:55:10.250Z,5.90
2023-04-18T23:57:38.492Z,6.53
